createdAt,value
2018-05-07T00:00:14.146Z,100638.06
2018-05-07T00:02:43.917Z,100633.23
2018-05-07T00:05:13.609Z,100626.17
2018-05-07T00:07:43.202Z,100625.67
2018-05-07T00:10:12.969Z,100626.17
2018-05-07T00:12:42.756Z,100626.77
2018-05-07T00:15:12.490Z,100618.93
2018-05-07T00:17:42.225Z,100626.48
2018-05-07T00:20:11.915Z,100616.37
2018-05-07T00:22:41.555Z,100617.70
2018-05-07T00:25:11.326Z,100619.43
2018-05-07T00:27:41.179Z,100620.34
2018-05-07T00:30:11.086Z,100617.70
2018-05-07T00:32:40.871Z,100616.33
2018-05-07T00:35:10.404Z,100606.31
2018-05-07T00:37:40.140Z,100611.30
2018-05-07T00:40:09.780Z,100609.58
2018-05-07T00:42:39.492Z,100614.00
2018-05-07T00:45:08.990Z,100616.73
2018-05-07T00:47:38.831Z,100615.55
2018-05-07T00:50:08.394Z,100616.91
2018-05-07T00:52:38.165Z,100611.62
2018-05-07T00:55:22.323Z,100621.86
2018-05-07T00:57:52.504Z,100621.86
2018-05-07T01:00:22.192Z,100616.05
2018-05-07T01:02:51.948Z,100618.53
2018-05-07T01:05:21.567Z,100610.16
2018-05-07T01:07:51.238Z,100613.30
2018-05-07T01:10:21.264Z,100616.52
2018-05-07T01:12:50.957Z,100607.86
2018-05-07T01:15:20.660Z,100612.92
2018-05-07T01:17:50.446Z,100611.27
2018-05-07T01:20:19.995Z,100607.69
2018-05-07T01:22:49.725Z,100612.59
2018-05-07T01:25:19.412Z,100607.89
2018-05-07T01:27:49.040Z,100607.96
2018-05-07T01:30:18.737Z,100605.36
2018-05-07T01:32:48.604Z,100606.35
2018-05-07T01:35:18.194Z,100603.05
2018-05-07T01:37:47.849Z,100608.48
2018-05-07T01:40:17.593Z,100608.67
2018-05-07T01:42:47.510Z,100606.61
2018-05-07T01:45:17.241Z,100608.94
2018-05-07T01:47:47.013Z,100598.70
2018-05-07T01:50:16.762Z,100607.58
2018-05-07T01:52:46.523Z,100606.79
2018-05-07T01:55:16.185Z,100601.62
2018-05-07T01:57:45.869Z,100604.38
2018-05-07T02:00:15.645Z,100608.02
2018-05-07T02:02:45.328Z,100604.70
2018-05-07T02:05:14.936Z,100606.51
2018-05-07T02:07:44.789Z,100599.55
2018-05-07T02:10:14.459Z,100607.48
2018-05-07T02:12:44.282Z,100603.05
2018-05-07T02:15:14.053Z,100603.91
2018-05-07T02:17:43.642Z,100598.19
2018-05-07T02:20:13.575Z,100599.58
2018-05-07T02:22:43.931Z,100599.58
2018-05-07T02:25:14.172Z,100599.58
2018-05-07T02:27:44.345Z,100599.58
2018-05-07T02:30:14.494Z,100599.58
2018-05-07T02:32:44.137Z,100598.33
2018-05-07T02:35:13.836Z,100597.02
2018-05-07T02:37:43.514Z,100596.15
2018-05-07T02:40:13.260Z,100597.09
2018-05-07T02:42:42.880Z,100597.53
2018-05-07T02:45:12.430Z,100600.69
2018-05-07T02:47:42.003Z,100601.24
2018-05-07T02:50:12.220Z,100601.24
2018-05-07T02:52:42.112Z,100598.36
2018-05-07T02:55:12.374Z,100598.36
2018-05-07T02:57:42.622Z,100598.36
2018-05-07T03:00:12.779Z,100598.36
2018-05-07T03:02:42.866Z,100598.36
2018-05-07T03:05:12.654Z,100599.27
2018-05-07T03:07:42.439Z,100596.67
2018-05-07T03:10:12.637Z,100596.67
2018-05-07T03:12:42.396Z,100593.65
2018-05-07T03:15:12.220Z,100598.11
2018-05-07T03:17:41.840Z,100594.77
2018-05-07T03:20:11.652Z,100600.03
2018-05-07T03:22:41.463Z,100596.95
2018-05-07T03:25:11.190Z,100594.32
2018-05-07T03:27:41.046Z,100597.85
2018-05-07T03:30:10.708Z,100590.44
2018-05-07T03:32:40.456Z,100595.77
2018-05-07T03:35:10.142Z,100589.63
2018-05-07T03:37:39.921Z,100585.98
2018-05-07T03:40:09.756Z,100586.33
2018-05-07T03:42:39.432Z,100591.08
2018-05-07T03:45:09.185Z,100587.10
2018-05-07T03:47:38.989Z,100589.16
2018-05-07T03:50:08.829Z,100581.61
2018-05-07T03:52:38.601Z,100579.26
2018-05-07T03:55:08.560Z,100576.08
2018-05-07T03:57:38.295Z,100576.02
2018-05-07T04:00:07.961Z,100573.66
2018-05-07T04:02:37.689Z,100575.32
2018-05-07T04:05:07.506Z,100577.81
2018-05-07T04:07:37.106Z,100572.68
2018-05-07T04:10:06.789Z,100576.69
2018-05-07T04:12:36.744Z,100578.55
2018-05-07T04:15:06.480Z,100575.23
2018-05-07T04:18:49.749Z,100574.48
2018-05-07T04:21:19.768Z,100576.31
2018-05-07T04:24:00.229Z,100573.89
2018-05-07T04:26:29.975Z,100579.31
2018-05-07T04:28:59.624Z,100576.55
2018-05-07T04:31:29.274Z,100575.93
2018-05-07T04:33:59.013Z,100573.01
2018-05-07T04:36:28.844Z,100577.62
2018-05-07T04:38:58.567Z,100575.19
2018-05-07T04:41:28.267Z,100573.70
2018-05-07T04:43:57.995Z,100572.50
2018-05-07T04:46:27.670Z,100569.17
2018-05-07T04:48:57.426Z,100565.83
2018-05-07T04:51:27.178Z,100566.81
2018-05-07T04:53:57.132Z,100578.03
2018-05-07T04:56:26.910Z,100576.61
2018-05-07T04:58:56.661Z,100576.50
2018-05-07T05:01:26.545Z,100584.81
2018-05-07T05:03:56.347Z,100586.97
2018-05-07T05:06:26.093Z,100587.39
2018-05-07T05:08:55.795Z,100586.44
2018-05-07T05:11:25.616Z,100584.25
2018-05-07T05:13:55.339Z,100584.23
2018-05-07T05:16:25.187Z,100588.20
2018-05-07T05:18:54.878Z,100586.05
2018-05-07T05:21:24.431Z,100588.29
2018-05-07T05:23:54.183Z,100586.19
2018-05-07T05:26:23.799Z,100581.88
2018-05-07T05:28:53.479Z,100584.03
2018-05-07T05:31:23.271Z,100577.43
2018-05-07T05:33:52.963Z,100579.61
2018-05-07T05:36:22.642Z,100576.97
2018-05-07T05:38:52.422Z,100577.66
2018-05-07T05:41:22.122Z,100577.66
2018-05-07T05:43:51.876Z,100584.20
2018-05-07T05:46:21.548Z,100581.53
2018-05-07T05:48:51.367Z,100576.15
2018-05-07T05:51:21.077Z,100575.67
2018-05-07T05:53:51.872Z,100577.44
2018-05-07T05:56:21.671Z,100573.83
2018-05-07T05:58:51.530Z,100575.55
2018-05-07T06:01:21.324Z,100581.62
2018-05-07T06:03:51.316Z,100573.61
2018-05-07T06:06:20.994Z,100569.48
2018-05-07T06:08:50.663Z,100570.14
2018-05-07T06:11:20.506Z,100568.55
2018-05-07T06:13:50.204Z,100568.20
2018-05-07T06:16:19.844Z,100565.20
2018-05-07T06:18:49.540Z,100563.72
2018-05-07T06:21:19.242Z,100568.06
2018-05-07T06:23:48.900Z,100572.28
2018-05-07T06:26:18.801Z,100571.41
2018-05-07T06:28:48.475Z,100565.86
2018-05-07T06:31:18.230Z,100584.33
2018-05-07T06:33:48.271Z,100571.84
2018-05-07T06:36:18.055Z,100573.56
2018-05-07T06:38:47.855Z,100574.16
2018-05-07T06:41:17.592Z,100571.48
2018-05-07T06:43:48.323Z,100568.20
2018-05-07T06:46:18.186Z,100566.00
2018-05-07T06:48:47.808Z,100566.39
2018-05-07T06:51:17.433Z,100561.45
2018-05-07T06:53:47.080Z,100565.75
2018-05-07T06:56:16.741Z,100569.47
2018-05-07T06:58:46.562Z,100571.02
2018-05-07T07:01:16.379Z,100562.29
2018-05-07T07:03:46.184Z,100562.13
2018-05-07T07:06:16.044Z,100561.41
2018-05-07T07:08:45.704Z,100557.80
2018-05-07T07:11:15.589Z,100549.47
2018-05-07T07:13:45.158Z,100556.19
2018-05-07T07:16:14.814Z,100547.14
2018-05-07T07:18:44.473Z,100544.80
2018-05-07T07:21:14.114Z,100550.05
2018-05-07T07:23:43.757Z,100551.29
2018-05-07T07:26:13.560Z,100552.73
2018-05-07T07:28:43.327Z,100552.93
2018-05-07T07:31:13.017Z,100551.50
2018-05-07T07:33:43.003Z,100542.83
2018-05-07T07:36:12.712Z,100544.66
2018-05-07T07:38:42.549Z,100544.64
2018-05-07T07:41:12.233Z,100547.33
2018-05-07T07:43:41.882Z,100544.45
2018-05-07T07:46:11.663Z,100545.78
2018-05-07T07:48:41.396Z,100538.57
2018-05-07T07:51:11.366Z,100541.15
2018-05-07T07:53:41.221Z,100546.00
2018-05-07T07:56:10.856Z,100547.91
2018-05-07T07:58:40.671Z,100545.20
2018-05-07T08:01:10.480Z,100548.63
2018-05-07T08:03:40.259Z,100550.13
2018-05-07T08:06:10.033Z,100550.78
2018-05-07T08:08:40.014Z,100551.32
2018-05-07T08:11:09.624Z,100546.05
2018-05-07T08:13:39.202Z,100538.50
2018-05-07T08:16:09.029Z,100544.33
2018-05-07T08:18:38.746Z,100534.41
2018-05-07T08:21:08.355Z,100536.19
2018-05-07T08:23:38.186Z,100530.53
2018-05-07T08:26:07.819Z,100537.75
2018-05-07T08:28:37.358Z,100526.15
2018-05-07T08:31:07.117Z,100536.08
2018-05-07T08:33:36.668Z,100525.67
2018-05-07T08:36:06.618Z,100537.73
2018-05-07T08:38:36.202Z,100523.00
2018-05-07T08:41:05.830Z,100530.83
2018-05-07T08:43:35.705Z,100521.63
2018-05-07T08:46:05.404Z,100518.28
2018-05-07T08:48:35.144Z,100521.55
2018-05-07T08:51:04.982Z,100517.81
2018-05-07T08:53:34.776Z,100523.02
2018-05-07T08:56:04.424Z,100516.53
2018-05-07T08:58:34.211Z,100514.44
2018-05-07T09:01:03.790Z,100526.29
2018-05-07T09:03:33.609Z,100517.80
2018-05-07T09:06:03.373Z,100521.40
2018-05-07T09:08:33.233Z,100519.53
2018-05-07T09:11:02.913Z,100518.59
2018-05-07T09:13:32.609Z,100516.59
2018-05-07T09:16:02.292Z,100512.63
2018-05-07T09:18:32.104Z,100505.70
2018-05-07T09:21:01.850Z,100503.16
2018-05-07T09:23:31.643Z,100495.05
2018-05-07T09:26:01.528Z,100492.90
2018-05-07T09:28:31.187Z,100497.58
2018-05-07T09:31:00.969Z,100494.78
2018-05-07T09:33:30.704Z,100492.74
2018-05-07T09:36:00.381Z,100492.95
2018-05-07T09:38:30.194Z,100485.33
2018-05-07T09:40:59.942Z,100484.95
2018-05-07T09:43:29.572Z,100476.90
2018-05-07T09:45:59.302Z,100483.53
2018-05-07T09:48:28.881Z,100478.05
2018-05-07T09:50:58.392Z,100468.20
2018-05-07T09:53:28.075Z,100471.41
2018-05-07T09:55:57.798Z,100468.97
2018-05-07T09:58:27.529Z,100467.53
2018-05-07T10:00:57.260Z,100462.41
2018-05-07T10:03:26.798Z,100461.20
2018-05-07T10:05:57.047Z,100462.41
2018-05-07T10:08:26.799Z,100454.97
2018-05-07T10:10:56.663Z,100445.34
2018-05-07T10:13:26.283Z,100448.05
2018-05-07T10:15:55.944Z,100443.75
2018-05-07T10:18:25.748Z,100440.81
2018-05-07T10:20:55.473Z,100446.17
2018-05-07T10:23:25.416Z,100446.75
2018-05-07T10:28:23.979Z,100443.91
2018-05-07T10:30:54.095Z,100445.31
2018-05-07T10:33:23.900Z,100439.72
2018-05-07T10:35:53.699Z,100440.75
2018-05-07T10:38:23.438Z,100440.66
2018-05-07T10:40:53.300Z,100438.01
2018-05-07T10:43:24.320Z,100442.75
2018-05-07T10:45:54.201Z,100429.63
2018-05-07T10:48:24.091Z,100429.05
2018-05-07T10:50:53.966Z,100425.11
2018-05-07T10:53:23.774Z,100426.72
2018-05-07T10:55:53.584Z,100425.28
2018-05-07T10:58:24.114Z,100414.86
2018-05-07T11:00:53.996Z,100409.50
2018-05-07T11:03:23.857Z,100400.99
2018-05-07T11:05:54.547Z,100401.90
2018-05-07T11:09:27.622Z,100400.59
2018-05-07T11:11:57.248Z,100391.42
2018-05-07T11:14:26.919Z,100390.38
2018-05-07T11:16:56.630Z,100379.22
2018-05-07T11:19:26.383Z,100391.12
2018-05-07T11:21:56.162Z,100380.37
2018-05-07T11:24:25.833Z,100382.46
2018-05-07T11:26:56.364Z,100387.72
2018-05-07T11:29:26.118Z,100376.63
2018-05-07T11:31:55.689Z,100369.55
2018-05-07T11:34:25.530Z,100362.87
2018-05-07T11:36:55.237Z,100363.02
2018-05-07T11:39:24.940Z,100359.70
2018-05-07T11:41:54.700Z,100354.52
2018-05-07T11:44:24.448Z,100354.69
2018-05-07T11:46:54.123Z,100351.89
2018-05-07T11:49:24.170Z,100339.28
2018-05-07T11:51:53.852Z,100337.80
2018-05-07T11:54:23.671Z,100341.12
2018-05-07T11:56:53.368Z,100335.87
2018-05-07T11:59:22.994Z,100334.75
2018-05-07T12:01:52.753Z,100332.48
2018-05-07T12:04:22.408Z,100325.00
2018-05-07T12:06:52.186Z,100321.34
2018-05-07T12:09:21.751Z,100317.04
2018-05-07T12:11:51.420Z,100322.06
2018-05-07T12:14:21.131Z,100316.75
2018-05-07T12:16:50.771Z,100313.94
2018-05-07T12:19:20.435Z,100304.93
2018-05-07T12:21:50.193Z,100298.88
2018-05-07T12:24:20.103Z,100304.02
2018-05-07T12:26:49.697Z,100300.91
2018-05-07T12:29:19.506Z,100293.50
2018-05-07T12:31:49.215Z,100297.31
2018-05-07T12:34:18.887Z,100293.66
2018-05-07T12:36:48.536Z,100302.97
2018-05-07T12:39:18.328Z,100297.29
2018-05-07T12:41:48.061Z,100298.11
2018-05-07T12:44:17.869Z,100298.17
2018-05-07T12:46:47.693Z,100286.25
2018-05-07T12:49:17.521Z,100277.64
2018-05-07T12:51:47.444Z,100272.53
2018-05-07T12:54:17.193Z,100267.84
2018-05-07T12:56:46.857Z,100270.58
2018-05-07T12:59:16.527Z,100265.33
2018-05-07T13:01:46.308Z,100263.80
2018-05-07T13:04:17.059Z,100249.58
2018-05-07T13:06:46.984Z,100260.40
2018-05-07T13:09:16.758Z,100251.69
2018-05-07T13:11:46.460Z,100254.88
2018-05-07T13:14:16.242Z,100247.28
2018-05-07T13:16:45.995Z,100248.22
2018-05-07T13:19:15.794Z,100236.76
2018-05-07T13:21:45.498Z,100242.20
2018-05-07T13:24:15.077Z,100246.78
2018-05-07T13:26:44.856Z,100240.27
2018-05-07T13:29:14.635Z,100234.82
2018-05-07T13:31:44.386Z,100227.23
2018-05-07T13:34:13.997Z,100221.53
2018-05-07T13:36:43.794Z,100215.72
2018-05-07T13:39:13.549Z,100220.63
2018-05-07T13:41:43.233Z,100219.17
2018-05-07T13:44:13.068Z,100214.91
2018-05-07T13:46:42.773Z,100218.11
2018-05-07T13:49:14.073Z,100213.69
2018-05-07T13:51:44.064Z,100213.59
2018-05-07T13:54:13.995Z,100208.93
2018-05-07T13:56:43.786Z,100208.93
2018-05-07T13:59:13.664Z,100210.46
2018-05-07T14:01:44.366Z,100198.88
2018-05-07T14:04:14.207Z,100202.41
2018-05-07T14:06:43.924Z,100199.66
2018-05-07T14:09:13.690Z,100193.98
2018-05-07T14:11:43.372Z,100199.66
2018-05-07T14:14:13.183Z,100204.20
2018-05-07T14:16:43.164Z,100201.83
2018-05-07T14:19:13.002Z,100187.67
2018-05-07T14:21:42.831Z,100196.16
2018-05-07T14:24:12.636Z,100195.73
2018-05-07T14:26:42.375Z,100191.91
2018-05-07T14:29:12.165Z,100188.89
2018-05-07T14:31:41.984Z,100183.72
2018-05-07T14:34:11.830Z,100182.91
2018-05-07T14:36:41.447Z,100182.64
2018-05-07T14:39:11.211Z,100174.69
2018-05-07T14:41:40.959Z,100173.30
2018-05-07T14:44:10.804Z,100170.90
2018-05-07T14:46:40.623Z,100164.02
2018-05-07T14:49:10.294Z,100171.17
2018-05-07T14:51:40.041Z,100163.30
2018-05-07T14:54:09.802Z,100162.58
2018-05-07T14:56:39.645Z,100164.41
2018-05-07T14:59:09.475Z,100154.98
2018-05-07T15:01:39.036Z,100155.13
2018-05-07T15:04:08.928Z,100157.28
2018-05-07T15:06:38.680Z,100156.68
2018-05-07T15:09:08.449Z,100155.93
2018-05-07T15:11:38.221Z,100153.39
2018-05-07T15:14:16.665Z,100144.67
2018-05-07T15:16:46.252Z,100137.49
2018-05-07T15:19:16.063Z,100127.37
2018-05-07T15:21:45.876Z,100136.27
2018-05-07T15:24:15.692Z,100136.77
2018-05-07T15:26:45.373Z,100133.37
2018-05-07T15:29:15.089Z,100138.73
2018-05-07T15:31:44.908Z,100138.61
2018-05-07T15:34:14.745Z,100140.37
2018-05-07T15:36:45.399Z,100136.91
2018-05-07T15:39:15.114Z,100138.36
2018-05-07T15:41:44.830Z,100131.69
2018-05-07T15:44:14.492Z,100129.57
2018-05-07T15:46:44.289Z,100128.94
2018-05-07T15:49:14.030Z,100123.45
2018-05-07T15:51:44.854Z,100119.75
2018-05-07T15:54:15.622Z,100131.64
2018-05-07T15:56:46.424Z,100121.90
2018-05-07T15:59:16.204Z,100118.06
2018-05-07T16:01:45.737Z,100118.09
2018-05-07T16:04:15.505Z,100121.77
2018-05-07T16:06:45.137Z,100118.65
2018-05-07T16:09:14.806Z,100118.53
2018-05-07T16:11:44.639Z,100115.01
2018-05-07T16:14:16.419Z,100114.96
2018-05-07T16:16:46.293Z,100110.38
2018-05-07T16:19:16.042Z,100121.54
2018-05-07T16:21:45.874Z,100116.78
2018-05-07T16:24:15.776Z,100109.91
2018-05-07T16:26:45.586Z,100119.39
2018-05-07T16:29:15.419Z,100111.63
2018-05-07T16:31:45.178Z,100115.88
2018-05-07T16:34:14.956Z,100109.16
2018-05-07T16:36:44.727Z,100108.55
2018-05-07T16:39:14.577Z,100106.70
2018-05-07T16:41:44.400Z,100105.00
2018-05-07T16:44:14.199Z,100106.91
2018-05-07T16:46:44.001Z,100096.39
2018-05-07T16:49:13.815Z,100102.03
2018-05-07T16:51:43.722Z,100097.61
2018-05-07T16:54:13.482Z,100094.77
2018-05-07T16:56:43.284Z,100094.14
2018-05-07T16:59:14.118Z,100092.61
2018-05-07T17:01:43.814Z,100094.57
2018-05-07T17:04:13.727Z,100089.70
2018-05-07T17:06:43.573Z,100093.00
2018-05-07T17:09:13.259Z,100090.20
2018-05-07T17:11:42.984Z,100103.62
2018-05-07T17:14:12.776Z,100095.25
2018-05-07T17:16:42.531Z,100094.70
2018-05-07T17:19:12.392Z,100100.69
2018-05-07T17:21:42.065Z,100102.22
2018-05-07T17:24:12.938Z,100103.12
2018-05-07T17:26:42.705Z,100104.47
2018-05-07T17:29:12.631Z,100102.64
2018-05-07T17:31:42.484Z,100100.90
2018-05-07T17:34:12.167Z,100107.68
2018-05-07T17:36:41.967Z,100111.00
2018-05-07T17:39:11.720Z,100107.87
2018-05-07T17:41:41.688Z,100101.75
2018-05-07T17:44:21.122Z,100109.41
2018-05-07T17:48:04.625Z,100115.79
2018-05-07T17:50:34.406Z,100114.80
2018-05-07T17:53:04.041Z,100114.45
2018-05-07T17:55:34.343Z,100112.28
2018-05-07T17:58:04.102Z,100109.63
2018-05-07T18:00:33.827Z,100109.98
2018-05-07T18:03:03.493Z,100112.52
2018-05-07T18:05:33.206Z,100112.22
2018-05-07T18:08:03.020Z,100108.62
2018-05-07T18:10:32.657Z,100118.59
2018-05-07T18:13:02.360Z,100127.24
2018-05-07T18:15:32.082Z,100131.15
2018-05-07T18:18:03.020Z,100129.74
2018-05-07T18:20:32.673Z,100132.37
2018-05-07T18:23:02.434Z,100129.91
2018-05-07T18:25:32.445Z,100137.72
2018-05-07T18:28:02.163Z,100133.95
2018-05-07T18:30:31.867Z,100131.95
2018-05-07T18:33:01.565Z,100137.73
2018-05-07T18:35:32.258Z,100141.84
2018-05-07T18:38:01.978Z,100142.27
2018-05-07T18:40:31.690Z,100144.88
2018-05-07T18:43:01.402Z,100140.89
2018-05-07T18:45:31.110Z,100148.23
2018-05-07T18:48:00.842Z,100148.48
2018-05-07T18:50:30.391Z,100143.28
2018-05-07T18:53:00.194Z,100143.48
2018-05-07T18:55:29.873Z,100147.66
2018-05-07T18:57:59.675Z,100148.22
2018-05-07T19:00:29.464Z,100149.41
2018-05-07T19:02:59.255Z,100154.47
2018-05-07T19:05:29.210Z,100146.45
2018-05-07T19:07:58.927Z,100146.32
2018-05-07T19:10:28.841Z,100148.27
2018-05-07T19:12:59.597Z,100147.20
2018-05-07T19:15:30.459Z,100149.05
2018-05-07T19:18:00.121Z,100149.00
2018-05-07T19:20:30.072Z,100149.88
2018-05-07T19:22:59.790Z,100150.94
2018-05-07T19:25:29.533Z,100149.55
2018-05-07T19:27:59.326Z,100151.77
2018-05-07T19:30:29.156Z,100150.97
2018-05-07T19:32:58.988Z,100152.36
2018-05-07T19:35:28.675Z,100147.88
2018-05-07T19:37:58.497Z,100147.12
2018-05-07T19:40:28.137Z,100146.84
2018-05-07T19:42:57.893Z,100145.13
2018-05-07T19:45:27.648Z,100144.37
2018-05-07T19:47:57.419Z,100142.37
2018-05-07T19:50:27.301Z,100140.12
2018-05-07T19:52:57.101Z,100142.70
2018-05-07T19:55:26.791Z,100137.93
2018-05-07T19:57:56.557Z,100139.96
2018-05-07T20:00:26.280Z,100133.41
2018-05-07T20:02:56.095Z,100137.97
2018-05-07T20:05:25.787Z,100135.87
2018-05-07T20:07:55.477Z,100140.64
2018-05-07T20:10:24.997Z,100138.27
2018-05-07T20:12:54.661Z,100131.92
2018-05-07T20:15:24.512Z,100131.05
2018-05-07T20:17:54.546Z,100127.23
2018-05-07T20:20:24.253Z,100128.92
2018-05-07T20:22:53.973Z,100134.25
2018-05-07T20:25:23.622Z,100135.55
2018-05-07T20:27:53.374Z,100131.47
2018-05-07T20:30:23.034Z,100133.61
2018-05-07T20:32:52.657Z,100129.58
2018-05-07T20:35:22.287Z,100135.77
2018-05-07T20:37:52.060Z,100133.78
2018-05-07T20:40:21.841Z,100138.63
2018-05-07T20:42:51.657Z,100130.99
2018-05-07T20:45:21.428Z,100134.86
2018-05-07T20:47:51.148Z,100129.75
2018-05-07T20:50:20.940Z,100139.61
2018-05-07T20:52:50.740Z,100130.28
2018-05-07T20:55:20.473Z,100129.96
2018-05-07T20:57:50.533Z,100124.89
2018-05-07T21:00:20.337Z,100131.41
2018-05-07T21:02:49.923Z,100132.04
2018-05-07T21:05:19.598Z,100130.57
2018-05-07T21:07:49.337Z,100123.06
2018-05-07T21:10:19.136Z,100126.47
2018-05-07T21:12:48.998Z,100124.92
2018-05-07T21:15:18.707Z,100126.33
2018-05-07T21:17:48.401Z,100127.50
2018-05-07T21:20:18.180Z,100119.30
2018-05-07T21:22:48.022Z,100118.52
2018-05-07T21:25:18.781Z,100114.31
2018-05-07T21:27:48.396Z,100114.86
2018-05-07T21:30:18.044Z,100115.80
2018-05-07T21:32:48.838Z,100112.42
2018-05-07T21:35:18.816Z,100109.22
2018-05-07T21:37:48.673Z,100110.55
2018-05-07T21:40:18.468Z,100113.98
2018-05-07T21:42:48.207Z,100111.41
2018-05-07T21:45:18.021Z,100114.23
2018-05-07T21:47:47.781Z,100111.81
2018-05-07T21:50:17.533Z,100105.53
2018-05-07T21:52:47.261Z,100105.14
2018-05-07T21:55:17.020Z,100103.50
2018-05-07T21:57:46.722Z,100103.55
2018-05-07T22:00:16.361Z,100098.33
2018-05-07T22:02:46.194Z,100103.02
2018-05-07T22:05:16.034Z,100098.84
2018-05-07T22:07:45.912Z,100103.69
2018-05-07T22:10:15.628Z,100106.81
2018-05-07T22:12:45.474Z,100112.94
2018-05-07T22:15:15.238Z,100107.55
2018-05-07T22:17:44.929Z,100108.80
2018-05-07T22:20:14.707Z,100103.88
2018-05-07T22:22:44.610Z,100106.14
2018-05-07T22:25:14.364Z,100101.80
2018-05-07T22:27:44.081Z,100107.42
2018-05-07T22:30:13.954Z,100110.38
